< < Back
Terminal Aerodrome Forecast


Current Version              Previous Versions:   1  2  3  4  5  6  7  8  9  

Terminal Aerodrome Forecast

984
FTUS42 KFFC 270737 AAA
TAFATL
TAF AMD
KATL 270737Z 2708/2812 09004KT P6SM SCT070
     FM271400 09007KT P6SM SCT045
     FM271800 10010KT P6SM SCT060
     FM280100 08005KT P6SM FEW080=

Latest METAR

112
SAUS70 KWBC 270800 RRJ
MTRATL
METAR KATL 270752Z 11005KT 10SM CLR 26/22 A3008 RMK AO2 SLP172
T02560222


USA.gov is the U.S. government's official web portal to all federal, state and local government web resources and services.